sensor_id;sensor_type;location;lat;lon;timestamp;P1;durP1;ratioP1;P2;durP2;ratioP2
20705;SDS011;10514;49.468;11.044;2022-12-24T00:00:26;5.53;;;1.10;;
20705;SDS011;10514;49.468;11.044;2022-12-24T00:02:53;2.55;;;1.00;;
20705;SDS011;10514;49.468;11.044;2022-12-24T00:05:19;4.80;;;1.00;;
20705;SDS011;10514;49.468;11.044;2022-12-24T00:07:45;3.75;;;1.17;;
20705;SDS011;10514;49.468;11.044;2022-12-24T00:10:11;5.43;;;1.48;;
20705;SDS011;10514;49.468;11.044;2022-12-24T00:12:36;3.05;;;1.17;;
20705;SDS011;10514;49.468;11.044;2022-12-24T00:15:03;7.40;;;1.67;;
20705;SDS011;10514;49.468;11.044;2022-12-24T00:17:29;6.43;;;1.48;;
20705;SDS011;10514;49.468;11.044;2022-12-24T00:19:55;11.07;;;1.10;;
20705;SDS011;10514;49.468;11.044;2022-12-24T00:22:21;5.40;;;1.30;;
20705;SDS011;10514;49.468;11.044;2022-12-24T00:24:47;8.52;;;1.40;;
20705;SDS011;10514;49.468;11.044;2022-12-24T00:27:13;4.15;;;1.20;;
20705;SDS011;10514;49.468;11.044;2022-12-24T00:29:39;2.83;;;0.95;;
20705;SDS011;10514;49.468;11.044;2022-12-24T00:32:05;4.50;;;1.05;;
20705;SDS011;10514;49.468;11.044;2022-12-24T00:34:34;6.72;;;1.30;;
20705;SDS011;10514;49.468;11.044;2022-12-24T00:37:00;6.88;;;1.15;;
20705;SDS011;10514;49.468;11.044;2022-12-24T00:39:26;6.25;;;1.58;;
20705;SDS011;10514;49.468;11.044;2022-12-24T00:41:52;3.85;;;1.15;;
20705;SDS011;10514;49.468;11.044;2022-12-24T00:44:18;7.05;;;1.48;;
20705;SDS011;10514;49.468;11.044;2022-12-24T00:46:43;8.13;;;1.58;;
20705;SDS011;10514;49.468;11.044;2022-12-24T00:49:09;11.53;;;1.60;;
20705;SDS011;10514;49.468;11.044;2022-12-24T00:51:36;4.22;;;1.27;;
20705;SDS011;10514;49.468;11.044;2022-12-24T00:54:02;9.63;;;1.38;;
20705;SDS011;10514;49.468;11.044;2022-12-24T00:56:28;6.45;;;1.10;;
20705;SDS011;10514;49.468;11.044;2022-12-24T00:58:54;6.65;;;1.30;;
20705;SDS011;10514;49.468;11.044;2022-12-24T01:01:21;9.20;;;1.42;;
20705;SDS011;10514;49.468;11.044;2022-12-24T01:03:47;7.05;;;1.17;;
20705;SDS011;10514;49.468;11.044;2022-12-24T01:06:16;6.47;;;1.23;;
20705;SDS011;10514;49.468;11.044;2022-12-24T01:08:44;4.50;;;1.45;;
20705;SDS011;10514;49.468;11.044;2022-12-24T01:11:11;4.82;;;1.10;;
20705;SDS011;10514;49.468;11.044;2022-12-24T01:13:37;6.47;;;1.27;;
20705;SDS011;10514;49.468;11.044;2022-12-24T01:16:10;1.42;;;0.90;;
20705;SDS011;10514;49.468;11.044;2022-12-24T01:18:37;4.32;;;1.50;;
20705;SDS011;10514;49.468;11.044;2022-12-24T01:21:03;7.25;;;1.20;;
20705;SDS011;10514;49.468;11.044;2022-12-24T01:23:29;7.85;;;1.77;;
20705;SDS011;10514;49.468;11.044;2022-12-24T01:25:59;5.80;;;1.15;;
20705;SDS011;10514;49.468;11.044;2022-12-24T01:28:28;4.20;;;1.33;;
20705;SDS011;10514;49.468;11.044;2022-12-24T01:30:54;9.85;;;1.85;;
20705;SDS011;10514;49.468;11.044;2022-12-24T01:33:20;6.60;;;1.52;;
20705;SDS011;10514;49.468;11.044;2022-12-24T01:35:46;9.50;;;1.27;;
20705;SDS011;10514;49.468;11.044;2022-12-24T01:38:12;4.28;;;1.40;;
20705;SDS011;10514;49.468;11.044;2022-12-24T01:40:39;10.48;;;1.75;;
20705;SDS011;10514;49.468;11.044;2022-12-24T01:43:25;8.30;;;1.40;;
20705;SDS011;10514;49.468;11.044;2022-12-24T01:48:20;7.60;;;1.40;;
20705;SDS011;10514;49.468;11.044;2022-12-24T01:50:47;4.72;;;1.15;;
20705;SDS011;10514;49.468;11.044;2022-12-24T01:53:13;6.63;;;1.15;;
20705;SDS011;10514;49.468;11.044;2022-12-24T01:55:40;10.75;;;1.45;;
20705;SDS011;10514;49.468;11.044;2022-12-24T01:58:07;9.93;;;1.63;;
20705;SDS011;10514;49.468;11.044;2022-12-24T02:00:34;4.43;;;1.23;;
20705;SDS011;10514;49.468;11.044;2022-12-24T02:02:59;4.38;;;1.48;;
20705;SDS011;10514;49.468;11.044;2022-12-24T02:05:34;4.47;;;1.48;;
20705;SDS011;10514;49.468;11.044;2022-12-24T02:08:13;6.97;;;1.60;;
20705;SDS011;10514;49.468;11.044;2022-12-24T02:10:39;11.50;;;1.92;;
20705;SDS011;10514;49.468;11.044;2022-12-24T02:13:05;6.80;;;1.40;;
20705;SDS011;10514;49.468;11.044;2022-12-24T02:15:47;5.85;;;1.30;;
20705;SDS011;10514;49.468;11.044;2022-12-24T02:18:19;9.73;;;1.58;;
20705;SDS011;10514;49.468;11.044;2022-12-24T02:28:50;6.00;;;1.25;;
20705;SDS011;10514;49.468;11.044;2022-12-24T02:31:22;7.68;;;1.67;;
20705;SDS011;10514;49.468;11.044;2022-12-24T02:33:54;3.53;;;1.15;;
20705;SDS011;10514;49.468;11.044;2022-12-24T02:36:31;14.87;;;1.97;;
20705;SDS011;10514;49.468;11.044;2022-12-24T02:39:02;8.05;;;1.30;;
20705;SDS011;10514;49.468;11.044;2022-12-24T02:41:29;11.93;;;1.98;;
20705;SDS011;10514;49.468;11.044;2022-12-24T02:44:16;9.23;;;1.77;;
20705;SDS011;10514;49.468;11.044;2022-12-24T02:46:43;3.85;;;1.35;;
20705;SDS011;10514;49.468;11.044;2022-12-24T02:49:10;9.75;;;2.00;;
20705;SDS011;10514;49.468;11.044;2022-12-24T02:51:37;4.85;;;1.33;;
20705;SDS011;10514;49.468;11.044;2022-12-24T02:54:02;4.70;;;1.08;;
20705;SDS011;10514;49.468;11.044;2022-12-24T03:04:35;6.43;;;1.13;;
20705;SDS011;10514;49.468;11.044;2022-12-24T03:07:05;5.70;;;1.70;;
20705;SDS011;10514;49.468;11.044;2022-12-24T03:12:13;5.20;;;1.10;;
20705;SDS011;10514;49.468;11.044;2022-12-24T03:14:42;3.80;;;1.10;;
20705;SDS011;10514;49.468;11.044;2022-12-24T03:17:09;6.00;;;2.30;;
20705;SDS011;10514;49.468;11.044;2022-12-24T03:19:35;5.47;;;1.35;;
20705;SDS011;10514;49.468;11.044;2022-12-24T03:22:03;10.63;;;1.85;;
20705;SDS011;10514;49.468;11.044;2022-12-24T03:24:32;7.10;;;1.20;;
20705;SDS011;10514;49.468;11.044;2022-12-24T03:26:58;5.57;;;1.38;;
20705;SDS011;10514;49.468;11.044;2022-12-24T03:29:24;8.60;;;1.48;;
20705;SDS011;10514;49.468;11.044;2022-12-24T03:31:51;11.82;;;1.67;;
20705;SDS011;10514;49.468;11.044;2022-12-24T03:34:22;5.50;;;1.30;;
20705;SDS011;10514;49.468;11.044;2022-12-24T03:36:48;6.30;;;1.20;;
20705;SDS011;10514;49.468;11.044;2022-12-24T03:39:14;8.27;;;1.80;;
20705;SDS011;10514;49.468;11.044;2022-12-24T03:41:40;8.80;;;1.93;;
20705;SDS011;10514;49.468;11.044;2022-12-24T03:44:06;7.10;;;1.80;;
20705;SDS011;10514;49.468;11.044;2022-12-24T03:46:32;9.45;;;1.25;;
20705;SDS011;10514;49.468;11.044;2022-12-24T03:48:58;4.10;;;1.70;;
20705;SDS011;10514;49.468;11.044;2022-12-24T03:51:24;16.73;;;1.92;;
20705;SDS011;10514;49.468;11.044;2022-12-24T03:53:51;8.33;;;2.00;;
20705;SDS011;10514;49.468;11.044;2022-12-24T03:56:17;4.72;;;1.42;;
20705;SDS011;10514;49.468;11.044;2022-12-24T03:58:43;9.52;;;1.85;;
20705;SDS011;10514;49.468;11.044;2022-12-24T04:01:08;5.72;;;1.52;;
20705;SDS011;10514;49.468;11.044;2022-12-24T04:03:34;3.90;;;1.13;;
20705;SDS011;10514;49.468;11.044;2022-12-24T04:06:01;11.35;;;1.80;;
20705;SDS011;10514;49.468;11.044;2022-12-24T04:08:38;7.88;;;1.35;;
20705;SDS011;10514;49.468;11.044;2022-12-24T04:11:05;6.45;;;1.50;;
20705;SDS011;10514;49.468;11.044;2022-12-24T04:13:31;7.27;;;1.53;;
20705;SDS011;10514;49.468;11.044;2022-12-24T04:16:01;8.33;;;1.47;;
20705;SDS011;10514;49.468;11.044;2022-12-24T04:18:29;7.70;;;1.60;;
20705;SDS011;10514;49.468;11.044;2022-12-24T04:20:55;10.85;;;1.52;;
20705;SDS011;10514;49.468;11.044;2022-12-24T04:23:21;5.13;;;1.35;;
20705;SDS011;10514;49.468;11.044;2022-12-24T04:25:47;7.90;;;1.60;;
20705;SDS011;10514;49.468;11.044;2022-12-24T04:28:13;6.85;;;1.50;;
20705;SDS011;10514;49.468;11.044;2022-12-24T04:30:40;10.25;;;1.40;;
20705;SDS011;10514;49.468;11.044;2022-12-24T04:33:06;9.83;;;1.67;;
20705;SDS011;10514;49.468;11.044;2022-12-24T04:35:32;7.28;;;1.55;;
20705;SDS011;10514;49.468;11.044;2022-12-24T04:37:58;6.27;;;1.20;;
20705;SDS011;10514;49.468;11.044;2022-12-24T04:40:24;5.63;;;1.55;;
20705;SDS011;10514;49.468;11.044;2022-12-24T04:42:50;6.28;;;1.30;;
20705;SDS011;10514;49.468;11.044;2022-12-24T04:45:16;5.63;;;1.20;;
20705;SDS011;10514;49.468;11.044;2022-12-24T04:47:42;10.65;;;1.55;;
20705;SDS011;10514;49.468;11.044;2022-12-24T04:50:09;8.52;;;1.75;;
20705;SDS011;10514;49.468;11.044;2022-12-24T04:52:35;7.50;;;1.53;;
20705;SDS011;10514;49.468;11.044;2022-12-24T04:55:01;2.37;;;1.10;;
20705;SDS011;10514;49.468;11.044;2022-12-24T04:57:27;17.70;;;1.80;;
20705;SDS011;10514;49.468;11.044;2022-12-24T04:59:55;4.97;;;1.05;;
20705;SDS011;10514;49.468;11.044;2022-12-24T05:02:21;7.07;;;1.30;;
20705;SDS011;10514;49.468;11.044;2022-12-24T05:04:47;10.77;;;1.48;;
20705;SDS011;10514;49.468;11.044;2022-12-24T05:07:13;9.27;;;1.17;;
20705;SDS011;10514;49.468;11.044;2022-12-24T05:09:39;5.47;;;1.60;;
20705;SDS011;10514;49.468;11.044;2022-12-24T05:12:05;6.63;;;1.50;;
20705;SDS011;10514;49.468;11.044;2022-12-24T05:14:31;8.65;;;1.40;;
20705;SDS011;10514;49.468;11.044;2022-12-24T05:16:57;9.17;;;1.33;;
20705;SDS011;10514;49.468;11.044;2022-12-24T05:19:22;4.80;;;1.07;;
20705;SDS011;10514;49.468;11.044;2022-12-24T05:21:48;6.60;;;1.60;;
20705;SDS011;10514;49.468;11.044;2022-12-24T05:24:34;10.03;;;1.27;;
20705;SDS011;10514;49.468;11.044;2022-12-24T05:27:18;11.65;;;1.70;;
20705;SDS011;10514;49.468;11.044;2022-12-24T05:29:44;11.68;;;1.73;;
20705;SDS011;10514;49.468;11.044;2022-12-24T05:32:10;7.13;;;1.00;;
20705;SDS011;10514;49.468;11.044;2022-12-24T05:34:36;3.42;;;1.20;;
20705;SDS011;10514;49.468;11.044;2022-12-24T05:37:02;7.78;;;1.42;;
20705;SDS011;10514;49.468;11.044;2022-12-24T05:39:28;7.32;;;1.70;;
20705;SDS011;10514;49.468;11.044;2022-12-24T05:41:54;8.02;;;1.45;;
20705;SDS011;10514;49.468;11.044;2022-12-24T05:44:20;5.85;;;1.20;;
20705;SDS011;10514;49.468;11.044;2022-12-24T05:46:46;11.05;;;1.30;;
20705;SDS011;10514;49.468;11.044;2022-12-24T05:49:12;10.82;;;1.63;;
20705;SDS011;10514;49.468;11.044;2022-12-24T05:51:37;7.32;;;1.85;;
20705;SDS011;10514;49.468;11.044;2022-12-24T05:54:04;10.32;;;1.38;;
20705;SDS011;10514;49.468;11.044;2022-12-24T05:56:29;5.13;;;1.20;;
20705;SDS011;10514;49.468;11.044;2022-12-24T05:58:55;4.37;;;1.37;;
20705;SDS011;10514;49.468;11.044;2022-12-24T06:01:22;5.65;;;1.40;;
20705;SDS011;10514;49.468;11.044;2022-12-24T06:03:48;6.32;;;1.02;;
20705;SDS011;10514;49.468;11.044;2022-12-24T06:06:15;6.10;;;1.30;;
20705;SDS011;10514;49.468;11.044;2022-12-24T06:08:43;6.17;;;1.23;;
20705;SDS011;10514;49.468;11.044;2022-12-24T06:11:10;6.17;;;1.50;;
20705;SDS011;10514;49.468;11.044;2022-12-24T06:13:36;7.55;;;1.40;;
20705;SDS011;10514;49.468;11.044;2022-12-24T06:16:04;9.13;;;1.40;;
20705;SDS011;10514;49.468;11.044;2022-12-24T06:18:31;8.53;;;1.87;;
20705;SDS011;10514;49.468;11.044;2022-12-24T06:20:58;9.77;;;1.80;;
20705;SDS011;10514;49.468;11.044;2022-12-24T06:23:24;6.50;;;1.45;;
20705;SDS011;10514;49.468;11.044;2022-12-24T06:25:50;9.87;;;1.67;;
20705;SDS011;10514;49.468;11.044;2022-12-24T06:28:16;10.52;;;1.88;;
20705;SDS011;10514;49.468;11.044;2022-12-24T06:30:45;8.30;;;1.92;;
20705;SDS011;10514;49.468;11.044;2022-12-24T06:33:12;7.07;;;1.48;;
20705;SDS011;10514;49.468;11.044;2022-12-24T06:35:38;12.75;;;1.70;;
20705;SDS011;10514;49.468;11.044;2022-12-24T06:38:04;4.00;;;1.30;;
20705;SDS011;10514;49.468;11.044;2022-12-24T06:40:30;10.55;;;1.88;;
20705;SDS011;10514;49.468;11.044;2022-12-24T06:42:55;10.75;;;1.88;;
20705;SDS011;10514;49.468;11.044;2022-12-24T06:45:21;10.95;;;1.58;;
20705;SDS011;10514;49.468;11.044;2022-12-24T06:47:47;8.65;;;1.58;;
20705;SDS011;10514;49.468;11.044;2022-12-24T06:50:13;9.30;;;1.67;;
20705;SDS011;10514;49.468;11.044;2022-12-24T06:52:39;7.18;;;2.00;;
20705;SDS011;10514;49.468;11.044;2022-12-24T06:55:05;6.00;;;1.85;;
20705;SDS011;10514;49.468;11.044;2022-12-24T06:57:31;12.65;;;1.80;;
20705;SDS011;10514;49.468;11.044;2022-12-24T06:59:57;7.72;;;2.50;;
20705;SDS011;10514;49.468;11.044;2022-12-24T07:02:24;12.93;;;2.65;;
20705;SDS011;10514;49.468;11.044;2022-12-24T07:04:49;7.80;;;1.83;;
20705;SDS011;10514;49.468;11.044;2022-12-24T07:07:15;11.60;;;2.53;;
20705;SDS011;10514;49.468;11.044;2022-12-24T07:09:41;6.82;;;1.92;;
20705;SDS011;10514;49.468;11.044;2022-12-24T07:12:07;12.98;;;3.35;;
20705;SDS011;10514;49.468;11.044;2022-12-24T07:14:33;20.98;;;4.70;;
20705;SDS011;10514;49.468;11.044;2022-12-24T07:16:59;6.35;;;3.30;;
20705;SDS011;10514;49.468;11.044;2022-12-24T07:19:25;10.60;;;2.88;;
20705;SDS011;10514;49.468;11.044;2022-12-24T07:21:51;15.65;;;3.55;;
20705;SDS011;10514;49.468;11.044;2022-12-24T07:24:17;11.07;;;2.22;;
20705;SDS011;10514;49.468;11.044;2022-12-24T07:26:44;8.07;;;2.27;;
20705;SDS011;10514;49.468;11.044;2022-12-24T07:29:09;7.47;;;2.20;;
20705;SDS011;10514;49.468;11.044;2022-12-24T07:31:35;7.38;;;2.08;;
20705;SDS011;10514;49.468;11.044;2022-12-24T07:34:01;8.55;;;2.47;;
20705;SDS011;10514;49.468;11.044;2022-12-24T07:36:27;10.82;;;2.88;;
20705;SDS011;10514;49.468;11.044;2022-12-24T07:38:53;15.02;;;3.17;;
20705;SDS011;10514;49.468;11.044;2022-12-24T07:41:20;5.15;;;1.70;;
20705;SDS011;10514;49.468;11.044;2022-12-24T07:43:46;10.05;;;2.28;;
20705;SDS011;10514;49.468;11.044;2022-12-24T07:46:12;11.02;;;2.20;;
20705;SDS011;10514;49.468;11.044;2022-12-24T07:48:38;8.35;;;2.13;;
20705;SDS011;10514;49.468;11.044;2022-12-24T07:51:04;9.82;;;2.53;;
20705;SDS011;10514;49.468;11.044;2022-12-24T07:53:30;12.95;;;2.72;;
20705;SDS011;10514;49.468;11.044;2022-12-24T07:55:56;13.88;;;2.72;;
20705;SDS011;10514;49.468;11.044;2022-12-24T07:58:22;14.80;;;2.93;;
20705;SDS011;10514;49.468;11.044;2022-12-24T08:00:48;15.95;;;3.08;;
20705;SDS011;10514;49.468;11.044;2022-12-24T08:03:20;13.50;;;2.67;;
20705;SDS011;10514;49.468;11.044;2022-12-24T08:05:46;14.63;;;2.38;;
20705;SDS011;10514;49.468;11.044;2022-12-24T08:08:12;13.43;;;3.43;;
20705;SDS011;10514;49.468;11.044;2022-12-24T08:10:39;10.57;;;2.10;;
20705;SDS011;10514;49.468;11.044;2022-12-24T08:13:06;10.55;;;2.63;;
20705;SDS011;10514;49.468;11.044;2022-12-24T08:15:32;9.93;;;2.57;;
20705;SDS011;10514;49.468;11.044;2022-12-24T08:17:58;8.55;;;2.50;;
20705;SDS011;10514;49.468;11.044;2022-12-24T08:20:24;8.00;;;2.65;;
20705;SDS011;10514;49.468;11.044;2022-12-24T08:22:49;15.82;;;3.40;;
20705;SDS011;10514;49.468;11.044;2022-12-24T08:25:15;6.88;;;2.42;;
20705;SDS011;10514;49.468;11.044;2022-12-24T08:27:41;17.38;;;3.55;;
20705;SDS011;10514;49.468;11.044;2022-12-24T08:30:07;14.27;;;3.58;;
20705;SDS011;10514;49.468;11.044;2022-12-24T08:32:33;14.57;;;3.70;;
20705;SDS011;10514;49.468;11.044;2022-12-24T08:34:59;11.90;;;2.47;;
20705;SDS011;10514;49.468;11.044;2022-12-24T08:37:25;11.20;;;3.13;;
20705;SDS011;10514;49.468;11.044;2022-12-24T08:39:51;11.55;;;2.70;;
20705;SDS011;10514;49.468;11.044;2022-12-24T08:42:17;14.05;;;3.17;;
20705;SDS011;10514;49.468;11.044;2022-12-24T08:44:44;10.20;;;2.40;;
20705;SDS011;10514;49.468;11.044;2022-12-24T08:47:10;10.43;;;2.97;;
20705;SDS011;10514;49.468;11.044;2022-12-24T08:49:36;11.65;;;3.25;;
20705;SDS011;10514;49.468;11.044;2022-12-24T08:52:03;15.75;;;3.53;;
20705;SDS011;10514;49.468;11.044;2022-12-24T08:54:29;16.33;;;3.05;;
20705;SDS011;10514;49.468;11.044;2022-12-24T08:56:55;10.25;;;2.70;;
20705;SDS011;10514;49.468;11.044;2022-12-24T08:59:20;14.30;;;2.35;;
20705;SDS011;10514;49.468;11.044;2022-12-24T09:01:46;9.38;;;3.10;;
20705;SDS011;10514;49.468;11.044;2022-12-24T09:04:12;11.82;;;3.63;;
20705;SDS011;10514;49.468;11.044;2022-12-24T09:06:38;12.53;;;3.00;;
20705;SDS011;10514;49.468;11.044;2022-12-24T09:09:04;12.82;;;3.40;;
20705;SDS011;10514;49.468;11.044;2022-12-24T09:11:30;13.00;;;2.55;;
20705;SDS011;10514;49.468;11.044;2022-12-24T09:13:56;18.63;;;4.45;;
20705;SDS011;10514;49.468;11.044;2022-12-24T09:16:22;14.43;;;2.72;;
20705;SDS011;10514;49.468;11.044;2022-12-24T09:18:48;17.75;;;3.20;;
20705;SDS011;10514;49.468;11.044;2022-12-24T09:21:14;18.08;;;3.47;;
20705;SDS011;10514;49.468;11.044;2022-12-24T09:23:41;15.40;;;2.92;;
20705;SDS011;10514;49.468;11.044;2022-12-24T09:26:08;16.10;;;2.80;;
20705;SDS011;10514;49.468;11.044;2022-12-24T09:28:34;11.20;;;2.92;;
20705;SDS011;10514;49.468;11.044;2022-12-24T09:31:01;14.07;;;2.70;;
20705;SDS011;10514;49.468;11.044;2022-12-24T09:33:29;14.55;;;3.40;;
20705;SDS011;10514;49.468;11.044;2022-12-24T09:35:55;12.05;;;3.10;;
20705;SDS011;10514;49.468;11.044;2022-12-24T09:38:22;19.35;;;3.40;;
20705;SDS011;10514;49.468;11.044;2022-12-24T09:40:47;7.57;;;2.30;;
20705;SDS011;10514;49.468;11.044;2022-12-24T09:43:15;14.82;;;3.55;;
20705;SDS011;10514;49.468;11.044;2022-12-24T09:45:48;14.07;;;2.70;;
20705;SDS011;10514;49.468;11.044;2022-12-24T09:48:15;15.38;;;2.85;;
20705;SDS011;10514;49.468;11.044;2022-12-24T09:50:45;11.52;;;2.55;;
20705;SDS011;10514;49.468;11.044;2022-12-24T09:55:44;11.18;;;2.88;;
20705;SDS011;10514;49.468;11.044;2022-12-24T09:58:15;12.27;;;2.45;;
20705;SDS011;10514;49.468;11.044;2022-12-24T10:00:43;11.75;;;2.50;;
20705;SDS011;10514;49.468;11.044;2022-12-24T10:03:15;18.97;;;2.90;;
20705;SDS011;10514;49.468;11.044;2022-12-24T10:16:31;10.05;;;2.35;;
20705;SDS011;10514;49.468;11.044;2022-12-24T10:19:04;19.15;;;2.08;;
20705;SDS011;10514;49.468;11.044;2022-12-24T10:24:19;12.40;;;2.58;;
20705;SDS011;10514;49.468;11.044;2022-12-24T10:29:16;19.02;;;3.35;;
20705;SDS011;10514;49.468;11.044;2022-12-24T10:32:25;16.15;;;2.92;;
20705;SDS011;10514;49.468;11.044;2022-12-24T10:34:33;20.75;;;2.95;;
20705;SDS011;10514;49.468;11.044;2022-12-24T10:37:01;22.63;;;3.05;;
20705;SDS011;10514;49.468;11.044;2022-12-24T10:39:28;13.10;;;2.25;;
20705;SDS011;10514;49.468;11.044;2022-12-24T10:41:54;19.45;;;3.47;;
20705;SDS011;10514;49.468;11.044;2022-12-24T10:44:23;11.55;;;2.28;;
20705;SDS011;10514;49.468;11.044;2022-12-24T10:46:50;14.82;;;3.17;;
20705;SDS011;10514;49.468;11.044;2022-12-24T10:49:17;10.52;;;2.40;;
20705;SDS011;10514;49.468;11.044;2022-12-24T10:51:48;18.45;;;2.42;;
20705;SDS011;10514;49.468;11.044;2022-12-24T10:54:25;11.48;;;2.25;;
20705;SDS011;10514;49.468;11.044;2022-12-24T10:56:57;18.67;;;2.47;;
20705;SDS011;10514;49.468;11.044;2022-12-24T10:59:27;12.23;;;2.63;;
20705;SDS011;10514;49.468;11.044;2022-12-24T11:01:57;13.77;;;2.50;;
20705;SDS011;10514;49.468;11.044;2022-12-24T11:04:25;16.02;;;2.60;;
20705;SDS011;10514;49.468;11.044;2022-12-24T11:06:54;15.18;;;2.85;;
20705;SDS011;10514;49.468;11.044;2022-12-24T11:09:34;17.92;;;2.25;;
20705;SDS011;10514;49.468;11.044;2022-12-24T11:12:02;9.20;;;1.83;;
20705;SDS011;10514;49.468;11.044;2022-12-24T11:14:33;11.88;;;1.88;;
20705;SDS011;10514;49.468;11.044;2022-12-24T11:16:59;11.95;;;2.45;;
20705;SDS011;10514;49.468;11.044;2022-12-24T11:19:28;19.83;;;2.67;;
20705;SDS011;10514;49.468;11.044;2022-12-24T11:22:00;10.65;;;1.83;;
20705;SDS011;10514;49.468;11.044;2022-12-24T11:24:28;11.73;;;2.63;;
20705;SDS011;10514;49.468;11.044;2022-12-24T11:26:54;13.32;;;2.97;;
20705;SDS011;10514;49.468;11.044;2022-12-24T11:29:40;19.67;;;3.10;;
20705;SDS011;10514;49.468;11.044;2022-12-24T11:32:15;16.70;;;2.45;;
20705;SDS011;10514;49.468;11.044;2022-12-24T11:34:41;10.50;;;2.45;;
20705;SDS011;10514;49.468;11.044;2022-12-24T11:37:19;12.70;;;2.55;;
20705;SDS011;10514;49.468;11.044;2022-12-24T11:39:57;9.90;;;2.00;;
20705;SDS011;10514;49.468;11.044;2022-12-24T11:42:27;12.82;;;2.45;;
20705;SDS011;10514;49.468;11.044;2022-12-24T11:44:54;17.20;;;2.55;;
20705;SDS011;10514;49.468;11.044;2022-12-24T11:47:37;8.90;;;2.22;;
20705;SDS011;10514;49.468;11.044;2022-12-24T11:50:17;12.52;;;2.60;;
20705;SDS011;10514;49.468;11.044;2022-12-24T11:52:45;12.90;;;2.30;;
20705;SDS011;10514;49.468;11.044;2022-12-24T11:55:23;9.65;;;2.30;;
20705;SDS011;10514;49.468;11.044;2022-12-24T11:57:56;11.98;;;2.10;;
20705;SDS011;10514;49.468;11.044;2022-12-24T12:00:23;10.32;;;2.25;;
20705;SDS011;10514;49.468;11.044;2022-12-24T12:02:50;10.98;;;2.05;;
20705;SDS011;10514;49.468;11.044;2022-12-24T12:05:17;12.32;;;2.80;;
20705;SDS011;10514;49.468;11.044;2022-12-24T12:07:45;10.95;;;1.88;;
20705;SDS011;10514;49.468;11.044;2022-12-24T12:10:22;6.00;;;1.67;;
20705;SDS011;10514;49.468;11.044;2022-12-24T12:18:23;10.40;;;3.38;;
20705;SDS011;10514;49.468;11.044;2022-12-24T12:20:55;10.20;;;2.28;;
20705;SDS011;10514;49.468;11.044;2022-12-24T12:23:41;13.73;;;2.35;;
20705;SDS011;10514;49.468;11.044;2022-12-24T12:26:10;14.18;;;2.42;;
20705;SDS011;10514;49.468;11.044;2022-12-24T12:28:46;13.85;;;2.50;;
20705;SDS011;10514;49.468;11.044;2022-12-24T12:31:21;13.43;;;2.17;;
20705;SDS011;10514;49.468;11.044;2022-12-24T12:33:51;10.98;;;2.25;;
20705;SDS011;10514;49.468;11.044;2022-12-24T12:36:20;14.60;;;3.20;;
20705;SDS011;10514;49.468;11.044;2022-12-24T12:38:49;13.60;;;3.58;;
20705;SDS011;10514;49.468;11.044;2022-12-24T12:54:21;15.32;;;3.05;;
20705;SDS011;10514;49.468;11.044;2022-12-24T12:56:51;10.45;;;2.40;;
20705;SDS011;10514;49.468;11.044;2022-12-24T12:59:25;8.65;;;1.65;;
20705;SDS011;10514;49.468;11.044;2022-12-24T13:04:35;10.85;;;1.92;;
20705;SDS011;10514;49.468;11.044;2022-12-24T13:07:47;11.80;;;2.10;;
20705;SDS011;10514;49.468;11.044;2022-12-24T13:18:31;12.20;;;3.50;;
20705;SDS011;10514;49.468;11.044;2022-12-24T13:21:03;8.63;;;2.17;;
20705;SDS011;10514;49.468;11.044;2022-12-24T13:23:28;22.27;;;5.20;;
20705;SDS011;10514;49.468;11.044;2022-12-24T13:25:57;30.38;;;5.40;;
20705;SDS011;10514;49.468;11.044;2022-12-24T13:33:51;21.73;;;3.70;;
20705;SDS011;10514;49.468;11.044;2022-12-24T13:36:22;7.43;;;2.53;;
20705;SDS011;10514;49.468;11.044;2022-12-24T13:49:20;13.82;;;2.95;;
20705;SDS011;10514;49.468;11.044;2022-12-24T13:52:24;12.73;;;2.70;;
20705;SDS011;10514;49.468;11.044;2022-12-24T13:57:29;11.10;;;3.08;;
20705;SDS011;10514;49.468;11.044;2022-12-24T14:00:00;11.82;;;3.20;;
20705;SDS011;10514;49.468;11.044;2022-12-24T14:02:26;11.65;;;2.22;;
20705;SDS011;10514;49.468;11.044;2022-12-24T14:04:53;11.30;;;2.30;;
20705;SDS011;10514;49.468;11.044;2022-12-24T14:07:23;9.60;;;1.65;;
20705;SDS011;10514;49.468;11.044;2022-12-24T14:09:48;7.45;;;1.75;;
20705;SDS011;10514;49.468;11.044;2022-12-24T14:12:29;15.15;;;3.15;;
20705;SDS011;10514;49.468;11.044;2022-12-24T14:14:54;15.48;;;2.85;;
20705;SDS011;10514;49.468;11.044;2022-12-24T14:17:24;13.82;;;2.50;;
20705;SDS011;10514;49.468;11.044;2022-12-24T14:19:54;12.43;;;2.58;;
20705;SDS011;10514;49.468;11.044;2022-12-24T14:27:31;13.85;;;2.83;;
20705;SDS011;10514;49.468;11.044;2022-12-24T14:30:00;7.47;;;1.80;;
20705;SDS011;10514;49.468;11.044;2022-12-24T14:32:34;11.75;;;2.22;;
20705;SDS011;10514;49.468;11.044;2022-12-24T14:35:07;15.68;;;2.40;;
20705;SDS011;10514;49.468;11.044;2022-12-24T14:37:34;12.68;;;2.47;;
20705;SDS011;10514;49.468;11.044;2022-12-24T14:40:00;13.05;;;3.17;;
20705;SDS011;10514;49.468;11.044;2022-12-24T14:48:10;8.98;;;2.95;;
20705;SDS011;10514;49.468;11.044;2022-12-24T14:50:39;17.77;;;3.28;;
20705;SDS011;10514;49.468;11.044;2022-12-24T14:53:18;14.10;;;2.22;;
20705;SDS011;10514;49.468;11.044;2022-12-24T14:55:46;16.33;;;1.92;;
20705;SDS011;10514;49.468;11.044;2022-12-24T14:58:31;11.82;;;2.05;;
20705;SDS011;10514;49.468;11.044;2022-12-24T15:01:40;13.70;;;3.10;;
20705;SDS011;10514;49.468;11.044;2022-12-24T15:04:19;9.88;;;1.77;;
20705;SDS011;10514;49.468;11.044;2022-12-24T15:06:48;15.23;;;2.67;;
20705;SDS011;10514;49.468;11.044;2022-12-24T15:09:20;11.98;;;2.28;;
20705;SDS011;10514;49.468;11.044;2022-12-24T15:11:47;14.38;;;2.80;;
20705;SDS011;10514;49.468;11.044;2022-12-24T15:14:14;11.73;;;2.45;;
20705;SDS011;10514;49.468;11.044;2022-12-24T15:16:40;11.45;;;2.33;;
20705;SDS011;10514;49.468;11.044;2022-12-24T15:19:14;13.48;;;2.45;;
20705;SDS011;10514;49.468;11.044;2022-12-24T15:21:44;11.68;;;1.95;;
20705;SDS011;10514;49.468;11.044;2022-12-24T15:24:23;12.40;;;2.08;;
20705;SDS011;10514;49.468;11.044;2022-12-24T15:26:52;11.43;;;3.38;;
20705;SDS011;10514;49.468;11.044;2022-12-24T15:29:22;13.73;;;2.50;;
20705;SDS011;10514;49.468;11.044;2022-12-24T15:31:56;9.63;;;2.65;;
20705;SDS011;10514;49.468;11.044;2022-12-24T15:34:27;19.02;;;2.42;;
20705;SDS011;10514;49.468;11.044;2022-12-24T15:36:59;11.52;;;2.03;;
20705;SDS011;10514;49.468;11.044;2022-12-24T15:39:36;14.90;;;2.77;;
20705;SDS011;10514;49.468;11.044;2022-12-24T15:42:03;12.48;;;2.70;;
20705;SDS011;10514;49.468;11.044;2022-12-24T15:44:55;12.23;;;2.78;;
20705;SDS011;10514;49.468;11.044;2022-12-24T15:47:25;6.57;;;1.77;;
20705;SDS011;10514;49.468;11.044;2022-12-24T15:49:52;11.32;;;2.58;;
20705;SDS011;10514;49.468;11.044;2022-12-24T15:52:19;11.03;;;1.87;;
20705;SDS011;10514;49.468;11.044;2022-12-24T15:54:48;14.93;;;3.13;;
20705;SDS011;10514;49.468;11.044;2022-12-24T15:57:25;15.27;;;2.17;;
20705;SDS011;10514;49.468;11.044;2022-12-24T15:59:52;13.15;;;2.70;;
20705;SDS011;10514;49.468;11.044;2022-12-24T16:02:24;7.15;;;2.13;;
20705;SDS011;10514;49.468;11.044;2022-12-24T16:04:52;11.95;;;2.88;;
20705;SDS011;10514;49.468;11.044;2022-12-24T16:07:24;15.63;;;3.70;;
20705;SDS011;10514;49.468;11.044;2022-12-24T16:10:24;11.70;;;2.70;;
20705;SDS011;10514;49.468;11.044;2022-12-24T16:12:50;10.00;;;2.43;;
20705;SDS011;10514;49.468;11.044;2022-12-24T16:15:16;10.23;;;2.88;;